sensor_id;sensor_type;location;lat;lon;timestamp;P1;durP1;ratioP1;P2;durP2;ratioP2
71769;SDS011;59605;52.122;5.420;2022-07-22T00:01:58;2.13;;;0.43;;
71769;SDS011;59605;52.122;5.420;2022-07-22T00:04:25;1.70;;;0.60;;
71769;SDS011;59605;52.122;5.420;2022-07-22T00:06:52;2.85;;;0.90;;
71769;SDS011;59605;52.122;5.420;2022-07-22T00:09:18;1.85;;;0.60;;
71769;SDS011;59605;52.122;5.420;2022-07-22T00:11:45;2.30;;;0.50;;
71769;SDS011;59605;52.122;5.420;2022-07-22T00:14:11;2.90;;;0.77;;
71769;SDS011;59605;52.122;5.420;2022-07-22T00:16:39;1.27;;;0.60;;
71769;SDS011;59605;52.122;5.420;2022-07-22T00:19:05;3.00;;;0.65;;
71769;SDS011;59605;52.122;5.420;2022-07-22T00:21:32;1.45;;;0.40;;
71769;SDS011;59605;52.122;5.420;2022-07-22T00:23:58;2.57;;;0.47;;
71769;SDS011;59605;52.122;5.420;2022-07-22T00:26:25;1.88;;;0.50;;
71769;SDS011;59605;52.122;5.420;2022-07-22T00:28:51;1.70;;;0.65;;
71769;SDS011;59605;52.122;5.420;2022-07-22T00:31:18;1.50;;;0.40;;
71769;SDS011;59605;52.122;5.420;2022-07-22T00:33:45;1.70;;;0.60;;
71769;SDS011;59605;52.122;5.420;2022-07-22T00:36:11;3.77;;;0.73;;
71769;SDS011;59605;52.122;5.420;2022-07-22T00:38:38;3.70;;;0.77;;
71769;SDS011;59605;52.122;5.420;2022-07-22T00:41:04;2.55;;;0.70;;
71769;SDS011;59605;52.122;5.420;2022-07-22T00:46:18;3.63;;;0.70;;
71769;SDS011;59605;52.122;5.420;2022-07-22T00:48:45;4.30;;;1.70;;
71769;SDS011;59605;52.122;5.420;2022-07-22T00:51:11;5.00;;;0.85;;
71769;SDS011;59605;52.122;5.420;2022-07-22T00:53:38;3.38;;;0.90;;
71769;SDS011;59605;52.122;5.420;2022-07-22T00:56:05;4.22;;;1.02;;
71769;SDS011;59605;52.122;5.420;2022-07-22T00:58:31;4.00;;;1.00;;
71769;SDS011;59605;52.122;5.420;2022-07-22T01:00:58;4.10;;;1.47;;
71769;SDS011;59605;52.122;5.420;2022-07-22T01:03:24;3.38;;;0.80;;
71769;SDS011;59605;52.122;5.420;2022-07-22T01:05:51;2.58;;;0.93;;
71769;SDS011;59605;52.122;5.420;2022-07-22T01:08:17;2.08;;;0.60;;
71769;SDS011;59605;52.122;5.420;2022-07-22T01:10:43;2.22;;;0.70;;
71769;SDS011;59605;52.122;5.420;2022-07-22T01:13:10;2.77;;;0.90;;
71769;SDS011;59605;52.122;5.420;2022-07-22T01:15:36;3.78;;;1.20;;
71769;SDS011;59605;52.122;5.420;2022-07-22T01:18:03;2.38;;;0.68;;
71769;SDS011;59605;52.122;5.420;2022-07-22T01:20:30;2.47;;;0.70;;
71769;SDS011;59605;52.122;5.420;2022-07-22T01:22:57;4.63;;;1.10;;
71769;SDS011;59605;52.122;5.420;2022-07-22T01:25:24;2.10;;;0.80;;
71769;SDS011;59605;52.122;5.420;2022-07-22T01:27:50;2.63;;;0.70;;
71769;SDS011;59605;52.122;5.420;2022-07-22T01:30:17;3.03;;;0.95;;
71769;SDS011;59605;52.122;5.420;2022-07-22T01:32:44;2.08;;;0.50;;
71769;SDS011;59605;52.122;5.420;2022-07-22T01:35:10;2.72;;;0.80;;
71769;SDS011;59605;52.122;5.420;2022-07-22T01:37:37;4.57;;;0.80;;
71769;SDS011;59605;52.122;5.420;2022-07-22T01:40:03;2.78;;;0.70;;
71769;SDS011;59605;52.122;5.420;2022-07-22T01:42:30;2.05;;;0.82;;
71769;SDS011;59605;52.122;5.420;2022-07-22T01:44:57;2.47;;;0.65;;
71769;SDS011;59605;52.122;5.420;2022-07-22T01:47:23;1.70;;;0.50;;
71769;SDS011;59605;52.122;5.420;2022-07-22T01:49:50;2.57;;;0.53;;
71769;SDS011;59605;52.122;5.420;2022-07-22T01:52:16;3.55;;;0.88;;
71769;SDS011;59605;52.122;5.420;2022-07-22T01:54:42;1.98;;;0.50;;
71769;SDS011;59605;52.122;5.420;2022-07-22T01:57:09;3.13;;;0.60;;
71769;SDS011;59605;52.122;5.420;2022-07-22T01:59:35;2.10;;;0.70;;
71769;SDS011;59605;52.122;5.420;2022-07-22T02:02:02;3.03;;;0.80;;
71769;SDS011;59605;52.122;5.420;2022-07-22T02:04:28;2.20;;;0.50;;
71769;SDS011;59605;52.122;5.420;2022-07-22T02:06:55;3.08;;;0.60;;
71769;SDS011;59605;52.122;5.420;2022-07-22T02:09:21;2.15;;;0.60;;
71769;SDS011;59605;52.122;5.420;2022-07-22T02:11:49;1.25;;;0.40;;
71769;SDS011;59605;52.122;5.420;2022-07-22T02:14:15;2.53;;;0.70;;
71769;SDS011;59605;52.122;5.420;2022-07-22T02:16:41;4.20;;;1.35;;
71769;SDS011;59605;52.122;5.420;2022-07-22T02:19:08;2.17;;;0.85;;
71769;SDS011;59605;52.122;5.420;2022-07-22T02:21:35;3.40;;;0.65;;
71769;SDS011;59605;52.122;5.420;2022-07-22T02:24:01;3.35;;;0.52;;
71769;SDS011;59605;52.122;5.420;2022-07-22T02:26:28;1.80;;;0.60;;
71769;SDS011;59605;52.122;5.420;2022-07-22T02:28:54;2.80;;;0.60;;
71769;SDS011;59605;52.122;5.420;2022-07-22T02:31:22;2.75;;;0.40;;
71769;SDS011;59605;52.122;5.420;2022-07-22T02:33:48;2.45;;;0.65;;
71769;SDS011;59605;52.122;5.420;2022-07-22T02:36:15;1.98;;;0.60;;
71769;SDS011;59605;52.122;5.420;2022-07-22T02:38:42;1.73;;;0.50;;
71769;SDS011;59605;52.122;5.420;2022-07-22T02:41:08;4.47;;;1.35;;
71769;SDS011;59605;52.122;5.420;2022-07-22T02:43:35;1.67;;;0.50;;
71769;SDS011;59605;52.122;5.420;2022-07-22T02:46:01;2.17;;;0.47;;
71769;SDS011;59605;52.122;5.420;2022-07-22T02:48:28;2.05;;;0.57;;
71769;SDS011;59605;52.122;5.420;2022-07-22T02:50:54;2.00;;;0.60;;
71769;SDS011;59605;52.122;5.420;2022-07-22T02:53:21;2.17;;;0.60;;
71769;SDS011;59605;52.122;5.420;2022-07-22T02:55:47;2.30;;;0.70;;
71769;SDS011;59605;52.122;5.420;2022-07-22T02:58:14;1.58;;;0.50;;
71769;SDS011;59605;52.122;5.420;2022-07-22T03:00:40;1.23;;;0.75;;
71769;SDS011;59605;52.122;5.420;2022-07-22T03:03:07;3.30;;;0.70;;
71769;SDS011;59605;52.122;5.420;2022-07-22T03:05:33;3.25;;;0.80;;
71769;SDS011;59605;52.122;5.420;2022-07-22T03:08:00;2.20;;;0.77;;
71769;SDS011;59605;52.122;5.420;2022-07-22T03:10:26;1.52;;;0.57;;
71769;SDS011;59605;52.122;5.420;2022-07-22T03:12:53;2.90;;;0.73;;
71769;SDS011;59605;52.122;5.420;2022-07-22T03:15:19;2.57;;;0.60;;
71769;SDS011;59605;52.122;5.420;2022-07-22T03:17:45;2.22;;;0.55;;
71769;SDS011;59605;52.122;5.420;2022-07-22T03:20:12;2.42;;;0.60;;
71769;SDS011;59605;52.122;5.420;2022-07-22T03:22:38;2.45;;;0.60;;
71769;SDS011;59605;52.122;5.420;2022-07-22T03:25:05;3.00;;;0.50;;
71769;SDS011;59605;52.122;5.420;2022-07-22T03:27:32;1.37;;;0.60;;
71769;SDS011;59605;52.122;5.420;2022-07-22T03:29:59;2.17;;;0.60;;
71769;SDS011;59605;52.122;5.420;2022-07-22T03:32:25;4.50;;;0.70;;
71769;SDS011;59605;52.122;5.420;2022-07-22T03:34:51;1.33;;;0.50;;
71769;SDS011;59605;52.122;5.420;2022-07-22T03:37:18;3.92;;;0.70;;
71769;SDS011;59605;52.122;5.420;2022-07-22T03:39:44;1.47;;;0.70;;
71769;SDS011;59605;52.122;5.420;2022-07-22T03:42:11;1.80;;;0.60;;
71769;SDS011;59605;52.122;5.420;2022-07-22T03:44:37;1.05;;;0.60;;
71769;SDS011;59605;52.122;5.420;2022-07-22T03:47:04;0.95;;;0.40;;
71769;SDS011;59605;52.122;5.420;2022-07-22T03:49:31;3.70;;;0.90;;
71769;SDS011;59605;52.122;5.420;2022-07-22T03:51:58;2.50;;;0.60;;
71769;SDS011;59605;52.122;5.420;2022-07-22T03:54:25;2.08;;;0.80;;
71769;SDS011;59605;52.122;5.420;2022-07-22T03:56:51;2.90;;;0.50;;
71769;SDS011;59605;52.122;5.420;2022-07-22T03:59:18;1.45;;;0.60;;
71769;SDS011;59605;52.122;5.420;2022-07-22T04:01:44;1.70;;;0.47;;
71769;SDS011;59605;52.122;5.420;2022-07-22T04:04:11;2.00;;;0.50;;
71769;SDS011;59605;52.122;5.420;2022-07-22T04:06:37;1.63;;;0.60;;
71769;SDS011;59605;52.122;5.420;2022-07-22T04:09:04;1.33;;;0.50;;
71769;SDS011;59605;52.122;5.420;2022-07-22T04:11:30;1.95;;;0.52;;
71769;SDS011;59605;52.122;5.420;2022-07-22T04:13:56;1.08;;;0.55;;
71769;SDS011;59605;52.122;5.420;2022-07-22T04:16:23;1.63;;;0.40;;
71769;SDS011;59605;52.122;5.420;2022-07-22T04:18:49;2.35;;;0.50;;
71769;SDS011;59605;52.122;5.420;2022-07-22T04:21:16;3.80;;;0.50;;
71769;SDS011;59605;52.122;5.420;2022-07-22T04:23:42;1.40;;;0.40;;
71769;SDS011;59605;52.122;5.420;2022-07-22T04:26:09;1.75;;;0.40;;
71769;SDS011;59605;52.122;5.420;2022-07-22T04:28:35;2.73;;;0.50;;
71769;SDS011;59605;52.122;5.420;2022-07-22T04:31:02;0.80;;;0.40;;
71769;SDS011;59605;52.122;5.420;2022-07-22T04:33:30;1.50;;;0.40;;
71769;SDS011;59605;52.122;5.420;2022-07-22T04:35:56;1.08;;;0.60;;
71769;SDS011;59605;52.122;5.420;2022-07-22T04:38:23;0.65;;;0.40;;
71769;SDS011;59605;52.122;5.420;2022-07-22T04:40:49;1.47;;;0.40;;
71769;SDS011;59605;52.122;5.420;2022-07-22T04:43:20;1.60;;;0.45;;
71769;SDS011;59605;52.122;5.420;2022-07-22T04:45:46;2.35;;;0.80;;
71769;SDS011;59605;52.122;5.420;2022-07-22T04:48:13;1.70;;;0.57;;
71769;SDS011;59605;52.122;5.420;2022-07-22T04:50:39;1.60;;;0.40;;
71769;SDS011;59605;52.122;5.420;2022-07-22T04:53:06;1.07;;;0.40;;
71769;SDS011;59605;52.122;5.420;2022-07-22T04:55:34;1.88;;;0.32;;
71769;SDS011;59605;52.122;5.420;2022-07-22T04:58:01;0.90;;;0.40;;
71769;SDS011;59605;52.122;5.420;2022-07-22T05:00:28;1.55;;;0.40;;
71769;SDS011;59605;52.122;5.420;2022-07-22T05:02:54;1.10;;;0.70;;
71769;SDS011;59605;52.122;5.420;2022-07-22T05:05:21;1.30;;;0.53;;
71769;SDS011;59605;52.122;5.420;2022-07-22T05:07:48;2.63;;;0.30;;
71769;SDS011;59605;52.122;5.420;2022-07-22T05:10:14;0.85;;;0.43;;
71769;SDS011;59605;52.122;5.420;2022-07-22T05:12:46;1.65;;;0.40;;
71769;SDS011;59605;52.122;5.420;2022-07-22T05:15:13;1.23;;;0.47;;
71769;SDS011;59605;52.122;5.420;2022-07-22T05:17:39;0.97;;;0.40;;
71769;SDS011;59605;52.122;5.420;2022-07-22T05:20:06;2.45;;;0.63;;
71769;SDS011;59605;52.122;5.420;2022-07-22T05:22:32;2.10;;;0.50;;
71769;SDS011;59605;52.122;5.420;2022-07-22T05:25:03;2.25;;;0.40;;
71769;SDS011;59605;52.122;5.420;2022-07-22T05:27:30;1.25;;;0.30;;
71769;SDS011;59605;52.122;5.420;2022-07-22T05:29:57;1.17;;;0.30;;
71769;SDS011;59605;52.122;5.420;2022-07-22T05:32:23;2.65;;;0.40;;
71769;SDS011;59605;52.122;5.420;2022-07-22T05:34:49;1.40;;;0.40;;
71769;SDS011;59605;52.122;5.420;2022-07-22T05:37:16;0.75;;;0.35;;
71769;SDS011;59605;52.122;5.420;2022-07-22T05:39:43;1.52;;;0.40;;
71769;SDS011;59605;52.122;5.420;2022-07-22T05:42:10;0.80;;;0.63;;
71769;SDS011;59605;52.122;5.420;2022-07-22T05:44:36;2.78;;;0.75;;
71769;SDS011;59605;52.122;5.420;2022-07-22T05:47:03;1.40;;;0.40;;
71769;SDS011;59605;52.122;5.420;2022-07-22T05:49:29;3.42;;;0.35;;
71769;SDS011;59605;52.122;5.420;2022-07-22T05:51:56;1.98;;;0.35;;
71769;SDS011;59605;52.122;5.420;2022-07-22T05:54:27;1.73;;;0.30;;
71769;SDS011;59605;52.122;5.420;2022-07-22T05:56:54;3.65;;;0.40;;
71769;SDS011;59605;52.122;5.420;2022-07-22T05:59:20;3.03;;;0.50;;
71769;SDS011;59605;52.122;5.420;2022-07-22T06:01:47;2.20;;;0.40;;
71769;SDS011;59605;52.122;5.420;2022-07-22T06:04:13;2.90;;;0.68;;
71769;SDS011;59605;52.122;5.420;2022-07-22T06:06:40;5.90;;;0.50;;
71769;SDS011;59605;52.122;5.420;2022-07-22T06:09:06;4.53;;;0.40;;
71769;SDS011;59605;52.122;5.420;2022-07-22T06:11:33;5.38;;;0.52;;
71769;SDS011;59605;52.122;5.420;2022-07-22T06:13:59;3.75;;;0.50;;
71769;SDS011;59605;52.122;5.420;2022-07-22T06:16:25;5.68;;;0.40;;
71769;SDS011;59605;52.122;5.420;2022-07-22T06:18:52;3.33;;;0.40;;
71769;SDS011;59605;52.122;5.420;2022-07-22T06:21:19;8.25;;;1.35;;
71769;SDS011;59605;52.122;5.420;2022-07-22T06:23:45;2.72;;;0.73;;
71769;SDS011;59605;52.122;5.420;2022-07-22T06:26:12;8.05;;;1.25;;
71769;SDS011;59605;52.122;5.420;2022-07-22T06:28:38;4.05;;;0.52;;
71769;SDS011;59605;52.122;5.420;2022-07-22T06:31:04;4.33;;;0.50;;
71769;SDS011;59605;52.122;5.420;2022-07-22T06:33:31;4.88;;;0.60;;
71769;SDS011;59605;52.122;5.420;2022-07-22T06:35:59;3.88;;;0.63;;
71769;SDS011;59605;52.122;5.420;2022-07-22T06:38:26;3.45;;;0.50;;
71769;SDS011;59605;52.122;5.420;2022-07-22T06:41:00;8.88;;;0.77;;
71769;SDS011;59605;52.122;5.420;2022-07-22T06:43:27;2.33;;;0.50;;
71769;SDS011;59605;52.122;5.420;2022-07-22T06:45:55;3.50;;;0.60;;
71769;SDS011;59605;52.122;5.420;2022-07-22T06:48:21;4.43;;;0.52;;
71769;SDS011;59605;52.122;5.420;2022-07-22T06:50:48;8.27;;;0.57;;
71769;SDS011;59605;52.122;5.420;2022-07-22T06:53:19;3.78;;;0.75;;
71769;SDS011;59605;52.122;5.420;2022-07-22T06:55:45;4.50;;;0.60;;
71769;SDS011;59605;52.122;5.420;2022-07-22T06:58:11;0.95;;;0.30;;
71769;SDS011;59605;52.122;5.420;2022-07-22T07:00:38;1.95;;;0.30;;
71769;SDS011;59605;52.122;5.420;2022-07-22T07:03:05;3.30;;;0.93;;
71769;SDS011;59605;52.122;5.420;2022-07-22T07:05:51;3.17;;;0.50;;
71769;SDS011;59605;52.122;5.420;2022-07-22T07:08:18;3.90;;;0.50;;
71769;SDS011;59605;52.122;5.420;2022-07-22T07:10:45;2.25;;;0.63;;
71769;SDS011;59605;52.122;5.420;2022-07-22T07:13:11;6.35;;;0.50;;
71769;SDS011;59605;52.122;5.420;2022-07-22T07:15:37;3.45;;;0.63;;
71769;SDS011;59605;52.122;5.420;2022-07-22T07:18:04;8.05;;;0.60;;
71769;SDS011;59605;52.122;5.420;2022-07-22T07:20:31;5.03;;;0.63;;
71769;SDS011;59605;52.122;5.420;2022-07-22T07:22:59;5.35;;;1.13;;
71769;SDS011;59605;52.122;5.420;2022-07-22T07:25:27;2.65;;;0.40;;
71769;SDS011;59605;52.122;5.420;2022-07-22T07:27:54;2.75;;;0.40;;
71769;SDS011;59605;52.122;5.420;2022-07-22T07:30:21;1.92;;;0.57;;
71769;SDS011;59605;52.122;5.420;2022-07-22T07:32:48;3.73;;;0.50;;
71769;SDS011;59605;52.122;5.420;2022-07-22T07:35:14;2.90;;;0.40;;
71769;SDS011;59605;52.122;5.420;2022-07-22T07:37:41;6.25;;;0.55;;
71769;SDS011;59605;52.122;5.420;2022-07-22T07:40:07;2.42;;;0.40;;
71769;SDS011;59605;52.122;5.420;2022-07-22T07:42:34;3.35;;;0.40;;
71769;SDS011;59605;52.122;5.420;2022-07-22T07:45:08;4.73;;;0.57;;
71769;SDS011;59605;52.122;5.420;2022-07-22T07:47:35;3.95;;;0.50;;
71769;SDS011;59605;52.122;5.420;2022-07-22T07:50:03;6.03;;;0.40;;
71769;SDS011;59605;52.122;5.420;2022-07-22T07:52:31;6.15;;;0.50;;
71769;SDS011;59605;52.122;5.420;2022-07-22T07:55:04;13.23;;;0.95;;
71769;SDS011;59605;52.122;5.420;2022-07-22T07:57:37;3.63;;;0.70;;
71769;SDS011;59605;52.122;5.420;2022-07-22T08:00:05;5.90;;;0.50;;
71769;SDS011;59605;52.122;5.420;2022-07-22T08:02:37;5.22;;;0.50;;
71769;SDS011;59605;52.122;5.420;2022-07-22T08:05:05;5.18;;;0.70;;
71769;SDS011;59605;52.122;5.420;2022-07-22T08:07:32;2.35;;;0.40;;
71769;SDS011;59605;52.122;5.420;2022-07-22T08:09:59;2.33;;;0.50;;
71769;SDS011;59605;52.122;5.420;2022-07-22T08:12:45;1.60;;;0.30;;
71769;SDS011;59605;52.122;5.420;2022-07-22T08:15:12;3.00;;;0.40;;
71769;SDS011;59605;52.122;5.420;2022-07-22T08:17:38;2.90;;;0.45;;
71769;SDS011;59605;52.122;5.420;2022-07-22T08:20:07;3.58;;;0.30;;
71769;SDS011;59605;52.122;5.420;2022-07-22T08:22:34;2.50;;;0.43;;
71769;SDS011;59605;52.122;5.420;2022-07-22T08:25:01;4.15;;;0.40;;
71769;SDS011;59605;52.122;5.420;2022-07-22T08:27:27;4.30;;;0.50;;
71769;SDS011;59605;52.122;5.420;2022-07-22T08:29:54;7.18;;;0.90;;
71769;SDS011;59605;52.122;5.420;2022-07-22T08:32:20;2.95;;;0.50;;
71769;SDS011;59605;52.122;5.420;2022-07-22T08:34:48;3.57;;;0.50;;
71769;SDS011;59605;52.122;5.420;2022-07-22T08:37:14;1.92;;;0.40;;
71769;SDS011;59605;52.122;5.420;2022-07-22T08:39:41;3.58;;;0.40;;
71769;SDS011;59605;52.122;5.420;2022-07-22T08:42:07;0.88;;;0.38;;
71769;SDS011;59605;52.122;5.420;2022-07-22T08:44:34;0.95;;;0.50;;
71769;SDS011;59605;52.122;5.420;2022-07-22T08:47:00;0.90;;;0.30;;
71769;SDS011;59605;52.122;5.420;2022-07-22T08:49:47;2.72;;;0.50;;
71769;SDS011;59605;52.122;5.420;2022-07-22T08:52:14;2.40;;;0.38;;
71769;SDS011;59605;52.122;5.420;2022-07-22T08:54:40;6.00;;;0.70;;
71769;SDS011;59605;52.122;5.420;2022-07-22T08:57:07;0.90;;;0.30;;
71769;SDS011;59605;52.122;5.420;2022-07-22T08:59:33;1.63;;;0.40;;
71769;SDS011;59605;52.122;5.420;2022-07-22T09:02:14;2.20;;;0.30;;
71769;SDS011;59605;52.122;5.420;2022-07-22T09:04:50;1.23;;;0.30;;
71769;SDS011;59605;52.122;5.420;2022-07-22T09:09:56;4.47;;;0.32;;
71769;SDS011;59605;52.122;5.420;2022-07-22T09:12:24;0.97;;;0.50;;
71769;SDS011;59605;52.122;5.420;2022-07-22T09:14:54;1.75;;;0.47;;
71769;SDS011;59605;52.122;5.420;2022-07-22T09:20:03;1.30;;;0.30;;
71769;SDS011;59605;52.122;5.420;2022-07-22T09:22:41;1.40;;;0.50;;
71769;SDS011;59605;52.122;5.420;2022-07-22T09:25:20;1.43;;;0.30;;
71769;SDS011;59605;52.122;5.420;2022-07-22T09:30:56;2.47;;;0.63;;
71769;SDS011;59605;52.122;5.420;2022-07-22T09:33:24;4.38;;;0.38;;
71769;SDS011;59605;52.122;5.420;2022-07-22T09:35:51;2.03;;;0.30;;
71769;SDS011;59605;52.122;5.420;2022-07-22T09:38:27;8.23;;;1.43;;
71769;SDS011;59605;52.122;5.420;2022-07-22T09:40:55;1.67;;;0.40;;
71769;SDS011;59605;52.122;5.420;2022-07-22T09:43:21;2.40;;;0.40;;
71769;SDS011;59605;52.122;5.420;2022-07-22T09:45:52;2.97;;;0.47;;
71769;SDS011;59605;52.122;5.420;2022-07-22T09:48:21;4.03;;;0.50;;
71769;SDS011;59605;52.122;5.420;2022-07-22T09:50:48;1.80;;;0.50;;
71769;SDS011;59605;52.122;5.420;2022-07-22T09:53:16;3.35;;;0.35;;
71769;SDS011;59605;52.122;5.420;2022-07-22T09:55:44;13.95;;;0.93;;
71769;SDS011;59605;52.122;5.420;2022-07-22T09:58:11;4.72;;;0.40;;
71769;SDS011;59605;52.122;5.420;2022-07-22T10:00:38;1.33;;;0.30;;
71769;SDS011;59605;52.122;5.420;2022-07-22T10:03:07;3.40;;;0.40;;
71769;SDS011;59605;52.122;5.420;2022-07-22T10:05:37;1.85;;;0.40;;
71769;SDS011;59605;52.122;5.420;2022-07-22T10:08:06;1.35;;;0.40;;
71769;SDS011;59605;52.122;5.420;2022-07-22T10:10:34;1.85;;;0.40;;
71769;SDS011;59605;52.122;5.420;2022-07-22T10:13:03;2.92;;;0.38;;
71769;SDS011;59605;52.122;5.420;2022-07-22T10:15:32;6.17;;;0.70;;
71769;SDS011;59605;52.122;5.420;2022-07-22T10:18:02;2.28;;;0.43;;
71769;SDS011;59605;52.122;5.420;2022-07-22T10:20:33;3.25;;;0.60;;
71769;SDS011;59605;52.122;5.420;2022-07-22T10:23:00;1.35;;;0.30;;
71769;SDS011;59605;52.122;5.420;2022-07-22T10:28:26;1.20;;;0.40;;
71769;SDS011;59605;52.122;5.420;2022-07-22T10:30:53;2.40;;;0.60;;
71769;SDS011;59605;52.122;5.420;2022-07-22T10:33:40;5.20;;;0.57;;
71769;SDS011;59605;52.122;5.420;2022-07-22T10:36:06;2.65;;;0.45;;
71769;SDS011;59605;52.122;5.420;2022-07-22T10:38:34;4.18;;;0.88;;
71769;SDS011;59605;52.122;5.420;2022-07-22T10:41:02;2.20;;;0.37;;
71769;SDS011;59605;52.122;5.420;2022-07-22T10:46:05;1.75;;;0.40;;
71769;SDS011;59605;52.122;5.420;2022-07-22T10:56:16;1.55;;;0.45;;
71769;SDS011;59605;52.122;5.420;2022-07-22T10:58:49;3.20;;;0.50;;
71769;SDS011;59605;52.122;5.420;2022-07-22T11:01:19;3.40;;;0.65;;
71769;SDS011;59605;52.122;5.420;2022-07-22T11:03:48;3.75;;;0.60;;
71769;SDS011;59605;52.122;5.420;2022-07-22T11:06:23;1.67;;;0.40;;
71769;SDS011;59605;52.122;5.420;2022-07-22T11:08:55;0.90;;;0.47;;
71769;SDS011;59605;52.122;5.420;2022-07-22T11:11:34;1.33;;;0.40;;
71769;SDS011;59605;52.122;5.420;2022-07-22T11:16:48;1.13;;;0.40;;
71769;SDS011;59605;52.122;5.420;2022-07-22T11:19:19;1.70;;;0.40;;
71769;SDS011;59605;52.122;5.420;2022-07-22T11:21:54;3.40;;;0.95;;
71769;SDS011;59605;52.122;5.420;2022-07-22T11:24:28;1.38;;;0.40;;
71769;SDS011;59605;52.122;5.420;2022-07-22T11:26:55;0.85;;;0.50;;
71769;SDS011;59605;52.122;5.420;2022-07-22T11:29:31;1.10;;;0.40;;
71769;SDS011;59605;52.122;5.420;2022-07-22T11:32:04;2.50;;;0.40;;
71769;SDS011;59605;52.122;5.420;2022-07-22T11:34:33;1.13;;;0.30;;
71769;SDS011;59605;52.122;5.420;2022-07-22T11:37:02;1.58;;;0.60;;
71769;SDS011;59605;52.122;5.420;2022-07-22T11:39:29;1.23;;;0.43;;
71769;SDS011;59605;52.122;5.420;2022-07-22T11:41:56;4.10;;;0.57;;
71769;SDS011;59605;52.122;5.420;2022-07-22T11:44:25;3.23;;;0.80;;
71769;SDS011;59605;52.122;5.420;2022-07-22T11:46:53;2.58;;;0.80;;
71769;SDS011;59605;52.122;5.420;2022-07-22T11:49:25;4.30;;;0.70;;
71769;SDS011;59605;52.122;5.420;2022-07-22T11:51:53;2.22;;;0.90;;
71769;SDS011;59605;52.122;5.420;2022-07-22T11:54:19;3.80;;;1.25;;
71769;SDS011;59605;52.122;5.420;2022-07-22T11:56:45;2.80;;;1.13;;
71769;SDS011;59605;52.122;5.420;2022-07-22T11:59:13;2.30;;;1.13;;
71769;SDS011;59605;52.122;5.420;2022-07-22T12:01:46;3.20;;;1.30;;
71769;SDS011;59605;52.122;5.420;2022-07-22T12:04:15;4.20;;;1.10;;
71769;SDS011;59605;52.122;5.420;2022-07-22T12:06:44;1.80;;;1.52;;
71769;SDS011;59605;52.122;5.420;2022-07-22T12:09:22;1.07;;;0.97;;
71769;SDS011;59605;52.122;5.420;2022-07-22T12:11:51;2.47;;;1.30;;
71769;SDS011;59605;52.122;5.420;2022-07-22T12:14:22;6.57;;;1.30;;
71769;SDS011;59605;52.122;5.420;2022-07-22T12:16:55;7.15;;;1.02;;
71769;SDS011;59605;52.122;5.420;2022-07-22T12:19:31;4.32;;;1.48;;
71769;SDS011;59605;52.122;5.420;2022-07-22T12:22:00;4.63;;;1.70;;
71769;SDS011;59605;52.122;5.420;2022-07-22T12:24:30;4.38;;;1.30;;
71769;SDS011;59605;52.122;5.420;2022-07-22T12:27:11;7.03;;;1.40;;
71769;SDS011;59605;52.122;5.420;2022-07-22T12:32:07;1.85;;;1.35;;
71769;SDS011;59605;52.122;5.420;2022-07-22T12:34:59;4.07;;;1.30;;
71769;SDS011;59605;52.122;5.420;2022-07-22T12:40:08;3.85;;;1.50;;
71769;SDS011;59605;52.122;5.420;2022-07-22T12:42:42;2.30;;;1.60;;
71769;SDS011;59605;52.122;5.420;2022-07-22T12:45:11;4.50;;;1.50;;
71769;SDS011;59605;52.122;5.420;2022-07-22T12:47:45;3.47;;;1.43;;
71769;SDS011;59605;52.122;5.420;2022-07-22T12:50:20;6.18;;;1.90;;
71769;SDS011;59605;52.122;5.420;2022-07-22T12:52:53;4.68;;;1.65;;
71769;SDS011;59605;52.122;5.420;2022-07-22T12:55:43;2.95;;;1.52;;
71769;SDS011;59605;52.122;5.420;2022-07-22T12:58:11;4.50;;;1.75;;
71769;SDS011;59605;52.122;5.420;2022-07-22T13:00:43;6.07;;;1.63;;
71769;SDS011;59605;52.122;5.420;2022-07-22T13:03:12;3.38;;;1.73;;
71769;SDS011;59605;52.122;5.420;2022-07-22T13:05:39;4.63;;;1.58;;
71769;SDS011;59605;52.122;5.420;2022-07-22T13:08:07;2.88;;;1.58;;
71769;SDS011;59605;52.122;5.420;2022-07-22T13:10:34;4.90;;;1.73;;
71769;SDS011;59605;52.122;5.420;2022-07-22T13:13:01;4.07;;;2.23;;
71769;SDS011;59605;52.122;5.420;2022-07-22T13:15:28;9.85;;;2.95;;
71769;SDS011;59605;52.122;5.420;2022-07-22T13:17:54;3.45;;;2.00;;
71769;SDS011;59605;52.122;5.420;2022-07-22T13:20:21;6.90;;;1.60;;
71769;SDS011;59605;52.122;5.420;2022-07-22T13:22:49;3.95;;;1.90;;
71769;SDS011;59605;52.122;5.420;2022-07-22T13:25:16;4.27;;;1.70;;
71769;SDS011;59605;52.122;5.420;2022-07-22T13:27:43;5.60;;;1.95;;
71769;SDS011;59605;52.122;5.420;2022-07-22T13:30:09;8.95;;;2.70;;
71769;SDS011;59605;52.122;5.420;2022-07-22T13:32:38;4.75;;;1.83;;
71769;SDS011;59605;52.122;5.420;2022-07-22T13:35:14;7.25;;;2.60;;
71769;SDS011;59605;52.122;5.420;2022-07-22T13:37:41;3.70;;;2.07;;
71769;SDS011;59605;52.122;5.420;2022-07-22T13:40:07;3.05;;;1.67;;
71769;SDS011;59605;52.122;5.420;2022-07-22T13:42:34;4.03;;;1.80;;
71769;SDS011;59605;52.122;5.420;2022-07-22T13:45:01;2.50;;;1.83;;
71769;SDS011;59605;52.122;5.420;2022-07-22T13:47:27;6.47;;;2.40;;
71769;SDS011;59605;52.122;5.420;2022-07-22T13:49:54;3.67;;;2.10;;
71769;SDS011;59605;52.122;5.420;2022-07-22T13:52:22;3.88;;;1.80;;
71769;SDS011;59605;52.122;5.420;2022-07-22T13:54:49;3.67;;;1.77;;
71769;SDS011;59605;52.122;5.420;2022-07-22T13:57:17;2.22;;;1.65;;
71769;SDS011;59605;52.122;5.420;2022-07-22T13:59:44;15.15;;;2.65;;
71769;SDS011;59605;52.122;5.420;2022-07-22T14:02:11;3.20;;;1.50;;
71769;SDS011;59605;52.122;5.420;2022-07-22T14:04:37;5.05;;;1.73;;
71769;SDS011;59605;52.122;5.420;2022-07-22T14:07:04;3.58;;;2.03;;
71769;SDS011;59605;52.122;5.420;2022-07-22T14:09:37;4.30;;;1.90;;
71769;SDS011;59605;52.122;5.420;2022-07-22T14:12:03;2.47;;;1.58;;
71769;SDS011;59605;52.122;5.420;2022-07-22T14:14:30;4.60;;;1.67;;
71769;SDS011;59605;52.122;5.420;2022-07-22T14:16:56;4.88;;;1.90;;
71769;SDS011;59605;52.122;5.420;2022-07-22T14:19:24;5.57;;;1.63;;
71769;SDS011;59605;52.122;5.420;2022-07-22T14:21:51;2.55;;;1.80;;
71769;SDS011;59605;52.122;5.420;2022-07-22T14:24:17;2.72;;;1.98;;
71769;SDS011;59605;52.122;5.420;2022-07-22T14:26:44;2.70;;;2.03;;
71769;SDS011;59605;52.122;5.420;2022-07-22T14:29:10;2.88;;;1.90;;
71769;SDS011;59605;52.122;5.420;2022-07-22T14:31:37;3.85;;;1.80;;
71769;SDS011;59605;52.122;5.420;2022-07-22T14:34:03;9.48;;;2.20;;
71769;SDS011;59605;52.122;5.420;2022-07-22T14:36:30;6.07;;;2.05;;
71769;SDS011;59605;52.122;5.420;2022-07-22T14:38:56;2.80;;;2.03;;
71769;SDS011;59605;52.122;5.420;2022-07-22T14:41:22;2.10;;;1.85;;
71769;SDS011;59605;52.122;5.420;2022-07-22T14:43:49;5.82;;;1.85;;
71769;SDS011;59605;52.122;5.420;2022-07-22T14:46:15;5.35;;;1.90;;
71769;SDS011;59605;52.122;5.420;2022-07-22T14:48:42;5.30;;;1.92;;
71769;SDS011;59605;52.122;5.420;2022-07-22T14:51:09;11.57;;;1.77;;
71769;SDS011;59605;52.122;5.420;2022-07-22T14:53:36;4.05;;;2.10;;
71769;SDS011;59605;52.122;5.420;2022-07-22T14:56:02;4.03;;;2.35;;
71769;SDS011;59605;52.122;5.420;2022-07-22T14:58:29;3.38;;;1.77;;
71769;SDS011;59605;52.122;5.420;2022-07-22T15:00:55;4.05;;;1.65;;
71769;SDS011;59605;52.122;5.420;2022-07-22T15:03:22;5.77;;;1.80;;
71769;SDS011;59605;52.122;5.420;2022-07-22T15:05:48;3.58;;;1.80;;
71769;SDS011;59605;52.122;5.420;2022-07-22T15:08:15;7.20;;;2.20;;
71769;SDS011;59605;52.122;5.420;2022-07-22T15:10:43;5.30;;;1.95;;
71769;SDS011;59605;52.122;5.420;2022-07-22T15:13:10;8.10;;;2.42;;
71769;SDS011;59605;52.122;5.420;2022-07-22T15:15:36;3.70;;;2.07;;
71769;SDS011;59605;52.122;5.420;2022-07-22T15:18:03;5.93;;;2.05;;
71769;SDS011;59605;52.122;5.420;2022-07-22T15:20:30;7.25;;;1.92;;
71769;SDS011;59605;52.122;5.420;2022-07-22T15:22:58;3.97;;;1.85;;
71769;SDS011;59605;52.122;5.420;2022-07-22T15:25:24;3.95;;;2.08;;